sensor_id;sensor_type;location;lat;lon;timestamp;pressure;altitude;pressure_sealevel;temperature;humidity
5455;BME280;2750;49.050;9.250;2023-05-10T00:03:06;98109.66;;;16.64;100.00
5455;BME280;2750;49.050;9.250;2023-05-10T00:08:08;98112.13;;;16.98;100.00
5455;BME280;2750;49.050;9.250;2023-05-10T00:13:11;98115.50;;;16.14;100.00
5455;BME280;2750;49.050;9.250;2023-05-10T00:18:12;98120.75;;;16.14;100.00
5455;BME280;2750;49.050;9.250;2023-05-10T00:23:14;98119.25;;;15.89;100.00
5455;BME280;2750;49.050;9.250;2023-05-10T00:28:16;98119.09;;;16.24;100.00
5455;BME280;2750;49.050;9.250;2023-05-10T00:33:18;98120.47;;;16.39;100.00
5455;BME280;2750;49.050;9.250;2023-05-10T00:38:19;98120.06;;;16.55;100.00
5455;BME280;2750;49.050;9.250;2023-05-10T00:43:22;98126.84;;;16.57;100.00
5455;BME280;2750;49.050;9.250;2023-05-10T00:48:24;98124.31;;;16.67;100.00
5455;BME280;2750;49.050;9.250;2023-05-10T00:53:26;98125.19;;;16.56;100.00
5455;BME280;2750;49.050;9.250;2023-05-10T00:58:29;98118.53;;;16.41;100.00
5455;BME280;2750;49.050;9.250;2023-05-10T01:03:31;98129.47;;;16.57;100.00
5455;BME280;2750;49.050;9.250;2023-05-10T01:08:33;98138.09;;;16.26;100.00
5455;BME280;2750;49.050;9.250;2023-05-10T01:13:38;98142.78;;;16.54;100.00
5455;BME280;2750;49.050;9.250;2023-05-10T01:18:40;98151.25;;;16.04;100.00
5455;BME280;2750;49.050;9.250;2023-05-10T01:23:58;98147.31;;;15.54;100.00
5455;BME280;2750;49.050;9.250;2023-05-10T01:29:13;98144.84;;;15.52;100.00
5455;BME280;2750;49.050;9.250;2023-05-10T01:34:23;98163.81;;;16.10;100.00
5455;BME280;2750;49.050;9.250;2023-05-10T01:39:33;98154.94;;;16.55;100.00
5455;BME280;2750;49.050;9.250;2023-05-10T01:44:40;98158.13;;;16.16;100.00
5455;BME280;2750;49.050;9.250;2023-05-10T01:49:49;98162.19;;;15.98;100.00
5455;BME280;2750;49.050;9.250;2023-05-10T01:54:54;98164.78;;;16.20;100.00
5455;BME280;2750;49.050;9.250;2023-05-10T01:59:57;98176.81;;;16.11;100.00
5455;BME280;2750;49.050;9.250;2023-05-10T02:05:02;98181.47;;;15.97;99.96
5455;BME280;2750;49.050;9.250;2023-05-10T02:10:06;98172.66;;;15.75;100.00
5455;BME280;2750;49.050;9.250;2023-05-10T02:15:10;98180.69;;;15.39;100.00
5455;BME280;2750;49.050;9.250;2023-05-10T02:20:16;98188.34;;;15.53;100.00
5455;BME280;2750;49.050;9.250;2023-05-10T02:25:19;98193.00;;;16.05;99.86
5455;BME280;2750;49.050;9.250;2023-05-10T02:30:22;98190.44;;;16.37;98.54
5455;BME280;2750;49.050;9.250;2023-05-10T02:35:26;98188.81;;;16.14;98.64
5455;BME280;2750;49.050;9.250;2023-05-10T02:40:28;98194.66;;;15.95;98.53
5455;BME280;2750;49.050;9.250;2023-05-10T02:45:32;98196.19;;;15.75;99.33
5455;BME280;2750;49.050;9.250;2023-05-10T02:50:37;98206.66;;;15.64;99.92
5455;BME280;2750;49.050;9.250;2023-05-10T02:55:41;98217.41;;;15.49;100.00
5455;BME280;2750;49.050;9.250;2023-05-10T03:00:44;98212.94;;;15.51;100.00
5455;BME280;2750;49.050;9.250;2023-05-10T03:05:47;98210.47;;;15.71;99.80
5455;BME280;2750;49.050;9.250;2023-05-10T03:10:55;98210.25;;;15.86;99.31
5455;BME280;2750;49.050;9.250;2023-05-10T03:16:07;98210.25;;;15.63;99.98
5455;BME280;2750;49.050;9.250;2023-05-10T03:21:12;98211.88;;;15.64;100.00
5455;BME280;2750;49.050;9.250;2023-05-10T03:26:19;98205.22;;;15.71;99.82
5455;BME280;2750;49.050;9.250;2023-05-10T03:31:21;98219.75;;;15.75;100.00
5455;BME280;2750;49.050;9.250;2023-05-10T03:36:24;98216.66;;;15.93;99.64
5455;BME280;2750;49.050;9.250;2023-05-10T03:41:26;98229.50;;;15.96;99.42
5455;BME280;2750;49.050;9.250;2023-05-10T03:46:27;98227.97;;;15.82;100.00
5455;BME280;2750;49.050;9.250;2023-05-10T03:51:30;98235.31;;;15.66;100.00
5455;BME280;2750;49.050;9.250;2023-05-10T03:56:32;98229.03;;;15.91;100.00
5455;BME280;2750;49.050;9.250;2023-05-10T04:01:33;98245.44;;;15.82;100.00
5455;BME280;2750;49.050;9.250;2023-05-10T04:06:37;98230.84;;;15.44;100.00
5455;BME280;2750;49.050;9.250;2023-05-10T04:11:39;98238.75;;;15.55;100.00
5455;BME280;2750;49.050;9.250;2023-05-10T04:16:40;98234.72;;;15.62;100.00
5455;BME280;2750;49.050;9.250;2023-05-10T04:21:43;98237.97;;;15.42;100.00
5455;BME280;2750;49.050;9.250;2023-05-10T04:26:44;98240.88;;;15.50;100.00
5455;BME280;2750;49.050;9.250;2023-05-10T04:31:46;98243.28;;;15.64;100.00
5455;BME280;2750;49.050;9.250;2023-05-10T04:36:50;98244.44;;;15.49;100.00
5455;BME280;2750;49.050;9.250;2023-05-10T04:41:51;98249.03;;;15.92;100.00
5455;BME280;2750;49.050;9.250;2023-05-10T04:46:53;98262.84;;;16.05;100.00
5455;BME280;2750;49.050;9.250;2023-05-10T04:51:55;98258.78;;;16.12;100.00
5455;BME280;2750;49.050;9.250;2023-05-10T04:56:57;98259.72;;;16.22;100.00
5455;BME280;2750;49.050;9.250;2023-05-10T05:01:59;98265.81;;;16.11;100.00
5455;BME280;2750;49.050;9.250;2023-05-10T05:07:02;98278.41;;;15.95;100.00
5455;BME280;2750;49.050;9.250;2023-05-10T05:12:04;98281.50;;;16.11;100.00
5455;BME280;2750;49.050;9.250;2023-05-10T05:17:05;98288.28;;;16.14;100.00
5455;BME280;2750;49.050;9.250;2023-05-10T05:22:08;98286.03;;;16.54;98.68
5455;BME280;2750;49.050;9.250;2023-05-10T05:27:10;98292.13;;;16.43;98.95
5455;BME280;2750;49.050;9.250;2023-05-10T05:32:12;98295.19;;;16.26;98.49
5455;BME280;2750;49.050;9.250;2023-05-10T05:37:15;98293.06;;;16.42;98.45
5455;BME280;2750;49.050;9.250;2023-05-10T05:42:16;98284.31;;;17.29;96.64
5455;BME280;2750;49.050;9.250;2023-05-10T05:47:18;98290.28;;;16.88;95.97
5455;BME280;2750;49.050;9.250;2023-05-10T05:52:21;98301.06;;;17.17;95.18
5455;BME280;2750;49.050;9.250;2023-05-10T05:57:23;98301.81;;;17.40;94.57
5455;BME280;2750;49.050;9.250;2023-05-10T06:02:24;98297.09;;;17.54;93.34
5455;BME280;2750;49.050;9.250;2023-05-10T06:07:27;98295.44;;;18.25;92.55
5455;BME280;2750;49.050;9.250;2023-05-10T06:12:29;98305.72;;;18.28;92.47
5455;BME280;2750;49.050;9.250;2023-05-10T06:17:30;98301.00;;;18.52;90.60
5455;BME280;2750;49.050;9.250;2023-05-10T06:22:33;98309.97;;;17.57;92.63
5455;BME280;2750;49.050;9.250;2023-05-10T06:27:34;98301.63;;;17.94;93.04
5455;BME280;2750;49.050;9.250;2023-05-10T06:32:36;98304.78;;;18.08;90.88
5455;BME280;2750;49.050;9.250;2023-05-10T06:37:39;98311.75;;;18.19;89.56
5455;BME280;2750;49.050;9.250;2023-05-10T06:42:40;98321.03;;;18.23;90.36
5455;BME280;2750;49.050;9.250;2023-05-10T06:47:42;98323.97;;;18.30;90.25
5455;BME280;2750;49.050;9.250;2023-05-10T06:52:44;98328.06;;;18.23;90.15
5455;BME280;2750;49.050;9.250;2023-05-10T06:57:46;98330.81;;;18.21;90.09
5455;BME280;2750;49.050;9.250;2023-05-10T07:02:47;98325.75;;;17.78;89.98
5455;BME280;2750;49.050;9.250;2023-05-10T07:07:50;98334.03;;;18.25;89.49
5455;BME280;2750;49.050;9.250;2023-05-10T07:12:51;98342.25;;;17.26;89.18
5455;BME280;2750;49.050;9.250;2023-05-10T07:17:53;98346.22;;;17.09;90.65
5455;BME280;2750;49.050;9.250;2023-05-10T07:22:56;98355.91;;;17.41;90.54
5455;BME280;2750;49.050;9.250;2023-05-10T07:27:57;98350.03;;;17.48;89.47
5455;BME280;2750;49.050;9.250;2023-05-10T07:32:59;98354.38;;;17.38;90.65
5455;BME280;2750;49.050;9.250;2023-05-10T07:38:01;98360.88;;;17.66;88.80
5455;BME280;2750;49.050;9.250;2023-05-10T07:43:03;98361.88;;;17.75;88.46
5455;BME280;2750;49.050;9.250;2023-05-10T07:48:05;98361.47;;;17.15;89.66
5455;BME280;2750;49.050;9.250;2023-05-10T07:53:07;98355.56;;;17.98;87.01
5455;BME280;2750;49.050;9.250;2023-05-10T07:58:09;98362.50;;;18.50;84.81
5455;BME280;2750;49.050;9.250;2023-05-10T08:03:10;98363.50;;;18.28;84.73
5455;BME280;2750;49.050;9.250;2023-05-10T08:08:13;98364.97;;;19.12;83.63
5455;BME280;2750;49.050;9.250;2023-05-10T08:13:15;98370.53;;;18.79;84.24
5455;BME280;2750;49.050;9.250;2023-05-10T08:18:16;98362.53;;;18.90;83.04
5455;BME280;2750;49.050;9.250;2023-05-10T08:23:19;98365.53;;;18.45;84.42
5455;BME280;2750;49.050;9.250;2023-05-10T08:28:20;98370.22;;;18.21;84.65
5455;BME280;2750;49.050;9.250;2023-05-10T08:33:22;98368.69;;;17.77;85.41
5455;BME280;2750;49.050;9.250;2023-05-10T08:38:25;98377.47;;;17.66;86.09
5455;BME280;2750;49.050;9.250;2023-05-10T08:43:27;98377.16;;;18.01;85.63
5455;BME280;2750;49.050;9.250;2023-05-10T08:48:29;98376.38;;;18.10;86.27
5455;BME280;2750;49.050;9.250;2023-05-10T08:53:33;98396.13;;;17.30;89.88
5455;BME280;2750;49.050;9.250;2023-05-10T08:58:37;98398.75;;;16.30;94.17
5455;BME280;2750;49.050;9.250;2023-05-10T09:03:39;98397.31;;;16.26;95.62
5455;BME280;2750;49.050;9.250;2023-05-10T09:08:43;98403.91;;;16.54;96.62
5455;BME280;2750;49.050;9.250;2023-05-10T09:13:44;98403.56;;;16.47;97.65
5455;BME280;2750;49.050;9.250;2023-05-10T09:18:47;98417.63;;;16.80;93.80
5455;BME280;2750;49.050;9.250;2023-05-10T09:23:50;98421.19;;;18.09;89.32
5455;BME280;2750;49.050;9.250;2023-05-10T09:28:56;98416.63;;;18.52;88.39
5455;BME280;2750;49.050;9.250;2023-05-10T09:33:57;98415.16;;;19.39;84.56
5455;BME280;2750;49.050;9.250;2023-05-10T09:39:00;98419.00;;;19.16;83.20
5455;BME280;2750;49.050;9.250;2023-05-10T09:44:02;98418.59;;;18.90;82.28
5455;BME280;2750;49.050;9.250;2023-05-10T09:49:05;98417.44;;;19.14;82.43
5455;BME280;2750;49.050;9.250;2023-05-10T09:54:12;98421.59;;;19.56;82.09
5455;BME280;2750;49.050;9.250;2023-05-10T09:59:14;98418.41;;;19.52;81.24
5455;BME280;2750;49.050;9.250;2023-05-10T10:04:17;98420.47;;;20.16;79.52
5455;BME280;2750;49.050;9.250;2023-05-10T10:09:20;98419.22;;;20.86;78.83
5455;BME280;2750;49.050;9.250;2023-05-10T10:14:21;98415.44;;;20.98;76.61
5455;BME280;2750;49.050;9.250;2023-05-10T10:19:23;98420.50;;;21.09;74.71
5455;BME280;2750;49.050;9.250;2023-05-10T10:24:26;98447.66;;;18.06;82.10
5455;BME280;2750;49.050;9.250;2023-05-10T10:29:34;98451.13;;;15.95;96.12
5455;BME280;2750;49.050;9.250;2023-05-10T10:34:38;98458.84;;;15.13;100.00
5455;BME280;2750;49.050;9.250;2023-05-10T10:39:42;98452.38;;;15.06;100.00
5455;BME280;2750;49.050;9.250;2023-05-10T10:44:43;98452.19;;;15.69;100.00
5455;BME280;2750;49.050;9.250;2023-05-10T10:49:49;98438.03;;;15.95;98.94
5455;BME280;2750;49.050;9.250;2023-05-10T10:54:58;98440.13;;;16.14;98.16
5455;BME280;2750;49.050;9.250;2023-05-10T11:00:21;98438.78;;;16.43;95.71
5455;BME280;2750;49.050;9.250;2023-05-10T11:05:37;98432.00;;;17.30;92.51
5455;BME280;2750;49.050;9.250;2023-05-10T11:10:53;98437.28;;;17.07;91.91
5455;BME280;2750;49.050;9.250;2023-05-10T11:15:55;98430.72;;;17.35;91.45
5455;BME280;2750;49.050;9.250;2023-05-10T11:20:59;98432.91;;;18.05;89.63
5455;BME280;2750;49.050;9.250;2023-05-10T11:26:07;98434.78;;;17.82;87.80
5455;BME280;2750;49.050;9.250;2023-05-10T11:31:09;98443.53;;;17.60;89.45
5455;BME280;2750;49.050;9.250;2023-05-10T11:36:14;98437.34;;;17.61;88.25
5455;BME280;2750;49.050;9.250;2023-05-10T11:41:19;98442.50;;;18.15;87.11
5455;BME280;2750;49.050;9.250;2023-05-10T11:46:23;98448.44;;;17.97;88.72
5455;BME280;2750;49.050;9.250;2023-05-10T11:51:25;98439.88;;;18.78;84.10
5455;BME280;2750;49.050;9.250;2023-05-10T11:56:27;98439.75;;;18.38;83.20
5455;BME280;2750;49.050;9.250;2023-05-10T12:01:30;98444.97;;;19.00;81.58
5455;BME280;2750;49.050;9.250;2023-05-10T12:06:34;98455.47;;;19.00;81.53
5455;BME280;2750;49.050;9.250;2023-05-10T12:11:40;98457.03;;;19.52;80.20
5455;BME280;2750;49.050;9.250;2023-05-10T12:16:43;98456.09;;;19.23;81.56
5455;BME280;2750;49.050;9.250;2023-05-10T12:21:44;98452.91;;;19.49;80.11
5455;BME280;2750;49.050;9.250;2023-05-10T12:26:47;98440.09;;;19.35;76.49
5455;BME280;2750;49.050;9.250;2023-05-10T12:31:51;98453.34;;;20.02;77.29
5455;BME280;2750;49.050;9.250;2023-05-10T12:36:53;98450.16;;;19.89;75.41
5455;BME280;2750;49.050;9.250;2023-05-10T12:41:56;98459.69;;;19.22;73.44
5455;BME280;2750;49.050;9.250;2023-05-10T12:46:58;98461.63;;;19.60;69.04
5455;BME280;2750;49.050;9.250;2023-05-10T12:51:59;98458.22;;;20.07;69.27
5455;BME280;2750;49.050;9.250;2023-05-10T12:57:02;98456.91;;;20.69;69.04
5455;BME280;2750;49.050;9.250;2023-05-10T13:02:04;98472.38;;;21.37;68.38
5455;BME280;2750;49.050;9.250;2023-05-10T13:07:05;98467.66;;;20.38;69.39
5455;BME280;2750;49.050;9.250;2023-05-10T13:12:08;98469.16;;;20.22;70.34
5455;BME280;2750;49.050;9.250;2023-05-10T13:17:10;98466.50;;;20.60;68.12
5455;BME280;2750;49.050;9.250;2023-05-10T13:22:11;98470.16;;;20.40;69.40
5455;BME280;2750;49.050;9.250;2023-05-10T13:27:14;98456.91;;;20.69;69.24
5455;BME280;2750;49.050;9.250;2023-05-10T13:32:15;98459.16;;;20.64;69.85
5455;BME280;2750;49.050;9.250;2023-05-10T13:37:17;98457.47;;;21.09;68.96
5455;BME280;2750;49.050;9.250;2023-05-10T13:42:21;98452.25;;;20.99;68.45
5455;BME280;2750;49.050;9.250;2023-05-10T13:47:23;98457.47;;;20.63;70.38
5455;BME280;2750;49.050;9.250;2023-05-10T13:52:24;98453.66;;;20.28;70.34
5455;BME280;2750;49.050;9.250;2023-05-10T13:57:27;98455.72;;;20.15;70.86
5455;BME280;2750;49.050;9.250;2023-05-10T14:02:30;98447.41;;;20.39;68.29
5455;BME280;2750;49.050;9.250;2023-05-10T14:07:32;98438.50;;;20.49;68.13
5455;BME280;2750;49.050;9.250;2023-05-10T14:12:34;98439.50;;;20.39;66.92
5455;BME280;2750;49.050;9.250;2023-05-10T14:17:36;98433.22;;;20.21;67.27
5455;BME280;2750;49.050;9.250;2023-05-10T14:22:37;98439.59;;;20.57;66.38
5455;BME280;2750;49.050;9.250;2023-05-10T14:27:40;98429.16;;;21.11;65.18
5455;BME280;2750;49.050;9.250;2023-05-10T14:32:42;98432.34;;;21.60;65.55
5455;BME280;2750;49.050;9.250;2023-05-10T14:37:43;98436.19;;;22.10;64.36
5455;BME280;2750;49.050;9.250;2023-05-10T14:42:46;98431.63;;;20.76;64.63
5455;BME280;2750;49.050;9.250;2023-05-10T14:47:47;98439.63;;;21.30;64.84
5455;BME280;2750;49.050;9.250;2023-05-10T14:52:49;98443.78;;;21.51;64.18
5455;BME280;2750;49.050;9.250;2023-05-10T14:57:52;98441.16;;;20.96;65.24
5455;BME280;2750;49.050;9.250;2023-05-10T15:02:54;98438.47;;;21.15;63.73
5455;BME280;2750;49.050;9.250;2023-05-10T15:07:55;98436.28;;;21.28;64.06
5455;BME280;2750;49.050;9.250;2023-05-10T15:12:59;98430.25;;;21.63;63.22
5455;BME280;2750;49.050;9.250;2023-05-10T15:18:00;98429.38;;;22.08;63.01
5455;BME280;2750;49.050;9.250;2023-05-10T15:23:02;98433.09;;;22.40;61.69
5455;BME280;2750;49.050;9.250;2023-05-10T15:28:05;98430.34;;;22.24;61.93
5455;BME280;2750;49.050;9.250;2023-05-10T15:33:06;98440.97;;;21.79;60.99
5455;BME280;2750;49.050;9.250;2023-05-10T15:38:09;98436.88;;;21.50;61.63
5455;BME280;2750;49.050;9.250;2023-05-10T15:43:12;98442.19;;;21.40;62.75
5455;BME280;2750;49.050;9.250;2023-05-10T15:48:13;98452.72;;;21.50;62.15
5455;BME280;2750;49.050;9.250;2023-05-10T15:53:15;98440.72;;;21.55;61.13
5455;BME280;2750;49.050;9.250;2023-05-10T15:58:18;98438.22;;;20.52;61.89
5455;BME280;2750;49.050;9.250;2023-05-10T16:03:19;98453.06;;;20.44;62.91
5455;BME280;2750;49.050;9.250;2023-05-10T16:08:21;98449.69;;;21.17;62.13
5455;BME280;2750;49.050;9.250;2023-05-10T16:13:24;98461.50;;;21.68;62.64
5455;BME280;2750;49.050;9.250;2023-05-10T16:18:25;98453.50;;;21.77;60.79
5455;BME280;2750;49.050;9.250;2023-05-10T16:23:27;98455.16;;;21.33;61.03
5455;BME280;2750;49.050;9.250;2023-05-10T16:28:30;98451.44;;;21.54;61.33
5455;BME280;2750;49.050;9.250;2023-05-10T16:33:31;98465.50;;;21.72;60.77
5455;BME280;2750;49.050;9.250;2023-05-10T16:38:33;98462.88;;;21.44;63.24
5455;BME280;2750;49.050;9.250;2023-05-10T16:43:36;98468.88;;;21.64;63.22
5455;BME280;2750;49.050;9.250;2023-05-10T16:48:37;98465.53;;;21.08;63.83
5455;BME280;2750;49.050;9.250;2023-05-10T16:53:39;98470.81;;;21.08;64.11
5455;BME280;2750;49.050;9.250;2023-05-10T16:58:42;98464.63;;;20.89;63.21
5455;BME280;2750;49.050;9.250;2023-05-10T17:03:43;98467.34;;;20.51;64.42
5455;BME280;2750;49.050;9.250;2023-05-10T17:08:44;98473.31;;;20.43;64.76
5455;BME280;2750;49.050;9.250;2023-05-10T17:13:47;98477.63;;;19.87;65.81
5455;BME280;2750;49.050;9.250;2023-05-10T17:18:51;98480.25;;;20.06;66.04
5455;BME280;2750;49.050;9.250;2023-05-10T17:23:52;98486.50;;;20.15;65.47
5455;BME280;2750;49.050;9.250;2023-05-10T17:28:55;98488.72;;;20.00;67.14
5455;BME280;2750;49.050;9.250;2023-05-10T17:33:56;98492.59;;;19.77;67.96
5455;BME280;2750;49.050;9.250;2023-05-10T17:38:58;98485.63;;;19.76;68.01
5455;BME280;2750;49.050;9.250;2023-05-10T17:44:02;98493.38;;;19.68;67.42
5455;BME280;2750;49.050;9.250;2023-05-10T17:49:03;98490.97;;;19.15;68.76
5455;BME280;2750;49.050;9.250;2023-05-10T17:54:05;98495.97;;;19.18;69.67
5455;BME280;2750;49.050;9.250;2023-05-10T17:59:08;98496.25;;;19.25;69.79
5455;BME280;2750;49.050;9.250;2023-05-10T18:04:09;98496.59;;;19.31;70.05
5455;BME280;2750;49.050;9.250;2023-05-10T18:09:10;98497.19;;;19.44;70.20
5455;BME280;2750;49.050;9.250;2023-05-10T18:14:14;98502.03;;;19.39;70.95
5455;BME280;2750;49.050;9.250;2023-05-10T18:19:15;98500.19;;;19.00;72.24
5455;BME280;2750;49.050;9.250;2023-05-10T18:24:17;98507.16;;;18.48;73.36
5455;BME280;2750;49.050;9.250;2023-05-10T18:29:22;98500.97;;;18.17;72.59
5455;BME280;2750;49.050;9.250;2023-05-10T18:34:23;98507.09;;;18.39;73.08
5455;BME280;2750;49.050;9.250;2023-05-10T18:39:25;98510.69;;;18.38;72.99
5455;BME280;2750;49.050;9.250;2023-05-10T18:44:27;98507.22;;;18.17;73.60
5455;BME280;2750;49.050;9.250;2023-05-10T18:49:29;98514.00;;;18.19;74.35
5455;BME280;2750;49.050;9.250;2023-05-10T18:54:31;98516.34;;;18.01;74.87
5455;BME280;2750;49.050;9.250;2023-05-10T18:59:34;98522.84;;;17.53;77.51
5455;BME280;2750;49.050;9.250;2023-05-10T19:04:35;98522.53;;;17.24;78.04
5455;BME280;2750;49.050;9.250;2023-05-10T19:09:37;98524.75;;;17.17;79.02
5455;BME280;2750;49.050;9.250;2023-05-10T19:14:39;98533.50;;;16.61;81.52
5455;BME280;2750;49.050;9.250;2023-05-10T19:19:41;98547.53;;;16.25;83.86
5455;BME280;2750;49.050;9.250;2023-05-10T19:24:42;98548.31;;;16.14;86.11
5455;BME280;2750;49.050;9.250;2023-05-10T19:29:45;98559.19;;;15.97;87.07
5455;BME280;2750;49.050;9.250;2023-05-10T19:34:47;98559.47;;;15.69;87.33
5455;BME280;2750;49.050;9.250;2023-05-10T19:39:48;98552.09;;;15.25;87.20
5455;BME280;2750;49.050;9.250;2023-05-10T19:44:52;98557.63;;;15.33;87.34
5455;BME280;2750;49.050;9.250;2023-05-10T19:49:53;98555.47;;;15.76;86.43
5455;BME280;2750;49.050;9.250;2023-05-10T19:54:54;98563.31;;;15.76;85.81
5455;BME280;2750;49.050;9.250;2023-05-10T19:59:57;98557.84;;;15.55;86.65
5455;BME280;2750;49.050;9.250;2023-05-10T20:04:59;98565.63;;;15.68;86.26
5455;BME280;2750;49.050;9.250;2023-05-10T20:10:00;98565.91;;;15.52;86.80
5455;BME280;2750;49.050;9.250;2023-05-10T20:15:05;98571.06;;;15.77;86.34
5455;BME280;2750;49.050;9.250;2023-05-10T20:20:07;98571.28;;;15.74;86.92
5455;BME280;2750;49.050;9.250;2023-05-10T20:25:09;98566.34;;;15.83;85.67
5455;BME280;2750;49.050;9.250;2023-05-10T20:30:12;98570.84;;;15.81;85.91
5455;BME280;2750;49.050;9.250;2023-05-10T20:35:13;98573.75;;;15.52;86.12
5455;BME280;2750;49.050;9.250;2023-05-10T20:40:15;98564.91;;;15.78;84.89
5455;BME280;2750;49.050;9.250;2023-05-10T20:45:18;98565.44;;;15.71;84.81
5455;BME280;2750;49.050;9.250;2023-05-10T20:50:19;98569.78;;;15.83;84.38
5455;BME280;2750;49.050;9.250;2023-05-10T20:55:21;98563.63;;;15.71;84.59
5455;BME280;2750;49.050;9.250;2023-05-10T21:00:24;98569.16;;;15.79;83.72
5455;BME280;2750;49.050;9.250;2023-05-10T21:05:25;98560.53;;;15.54;85.69
5455;BME280;2750;49.050;9.250;2023-05-10T21:10:27;98564.41;;;15.61;85.14
5455;BME280;2750;49.050;9.250;2023-05-10T21:15:30;98560.31;;;15.69;84.51
5455;BME280;2750;49.050;9.250;2023-05-10T21:20:31;98556.56;;;15.48;85.17
5455;BME280;2750;49.050;9.250;2023-05-10T21:25:33;98557.31;;;15.50;84.65
5455;BME280;2750;49.050;9.250;2023-05-10T21:30:36;98559.78;;;15.64;82.96
5455;BME280;2750;49.050;9.250;2023-05-10T21:35:37;98564.66;;;15.82;82.77
5455;BME280;2750;49.050;9.250;2023-05-10T21:40:41;98569.06;;;15.81;83.29
5455;BME280;2750;49.050;9.250;2023-05-10T21:45:44;98571.41;;;15.60;84.10
5455;BME280;2750;49.050;9.250;2023-05-10T21:50:46;98571.81;;;15.67;84.10
5455;BME280;2750;49.050;9.250;2023-05-10T21:55:47;98570.16;;;15.66;84.24
5455;BME280;2750;49.050;9.250;2023-05-10T22:00:50;98568.88;;;15.71;85.17
5455;BME280;2750;49.050;9.250;2023-05-10T22:05:51;98569.16;;;15.79;84.96
5455;BME280;2750;49.050;9.250;2023-05-10T22:10:53;98581.13;;;15.71;84.09
5455;BME280;2750;49.050;9.250;2023-05-10T22:15:55;98570.50;;;15.85;84.30
5455;BME280;2750;49.050;9.250;2023-05-10T22:20:57;98577.38;;;15.62;84.81
5455;BME280;2750;49.050;9.250;2023-05-10T22:26:00;98572.78;;;15.41;85.32
5455;BME280;2750;49.050;9.250;2023-05-10T22:31:08;98573.31;;;15.58;85.31
5455;BME280;2750;49.050;9.250;2023-05-10T22:36:09;98574.13;;;15.46;85.23
5455;BME280;2750;49.050;9.250;2023-05-10T22:41:10;98565.91;;;15.02;86.32
5455;BME280;2750;49.050;9.250;2023-05-10T22:46:13;98564.94;;;15.15;86.21
5455;BME280;2750;49.050;9.250;2023-05-10T22:51:15;98569.34;;;15.15;85.44
5455;BME280;2750;49.050;9.250;2023-05-10T22:56:17;98567.47;;;15.04;85.61
5455;BME280;2750;49.050;9.250;2023-05-10T23:01:19;98571.88;;;15.29;85.73
5455;BME280;2750;49.050;9.250;2023-05-10T23:06:21;98574.56;;;14.90;85.76
5455;BME280;2750;49.050;9.250;2023-05-10T23:11:22;98571.22;;;14.88;86.02
5455;BME280;2750;49.050;9.250;2023-05-10T23:16:25;98574.47;;;15.29;85.88
5455;BME280;2750;49.050;9.250;2023-05-10T23:21:27;98579.16;;;14.99;87.20
5455;BME280;2750;49.050;9.250;2023-05-10T23:26:28;98585.47;;;15.21;86.55
5455;BME280;2750;49.050;9.250;2023-05-10T23:31:31;98581.91;;;15.10;86.36
5455;BME280;2750;49.050;9.250;2023-05-10T23:36:32;98589.22;;;15.17;86.03
5455;BME280;2750;49.050;9.250;2023-05-10T23:41:34;98582.94;;;15.32;85.70
5455;BME280;2750;49.050;9.250;2023-05-10T23:46:37;98581.44;;;15.41;85.50
5455;BME280;2750;49.050;9.250;2023-05-10T23:51:38;98580.09;;;15.23;86.14
5455;BME280;2750;49.050;9.250;2023-05-10T23:56:40;98571.63;;;14.81;88.92
